METAR

METAR

SAPL62 EPRA 231830
METAR EPRA 231830Z 23004KT 1500 BR NSC M02/M03 Q1022=

TAF

TAF

FCPL62 EPRA 231700 AAA
TAF AMD EPRA 231850Z 2318/2403 CNL=

Witamy na stronie Radom Meteo

zawsze aktualna prognoza dla pilotów